createdAt,value
2023-04-19T00:01:45.125Z,72.88
2023-04-19T00:05:48.972Z,72.69
2023-04-19T00:09:52.034Z,72.68
2023-04-19T00:13:55.124Z,72.91
2023-04-19T00:17:59.885Z,72.89
2023-04-19T00:22:03.074Z,72.74
2023-04-19T00:26:06.190Z,72.96
2023-04-19T00:30:10.021Z,73.32
2023-04-19T00:34:14.834Z,73.29
2023-04-19T00:38:18.356Z,73.08
2023-04-19T00:42:21.597Z,73.65
2023-04-19T00:46:25.656Z,73.53
2023-04-19T00:50:30.630Z,73.74
2023-04-19T00:54:34.452Z,73.88
2023-04-19T00:58:39.811Z,74.07
2023-04-19T01:02:43.474Z,74.28
2023-04-19T01:06:49.241Z,74.28
2023-04-19T01:10:52.337Z,74.52
2023-04-19T01:14:55.364Z,74.65
2023-04-19T01:18:58.429Z,74.75
2023-04-19T01:23:03.902Z,74.72
2023-04-19T01:27:07.012Z,74.80
2023-04-19T01:31:10.161Z,74.91
2023-04-19T01:35:13.406Z,75.23
2023-04-19T01:39:17.946Z,75.12
2023-04-19T01:43:20.983Z,75.40
2023-04-19T01:47:25.128Z,75.29
2023-04-19T01:51:28.205Z,75.27
2023-04-19T01:55:33.114Z,75.40
2023-04-19T01:59:36.282Z,75.56
2023-04-19T02:03:39.435Z,75.94
2023-04-19T02:07:42.708Z,75.84
2023-04-19T02:11:47.100Z,76.18
2023-04-19T02:15:50.549Z,75.99
2023-04-19T02:19:54.141Z,76.02
2023-04-19T02:23:57.187Z,76.39
2023-04-19T02:28:01.604Z,76.42
2023-04-19T02:32:06.203Z,76.44
2023-04-19T02:36:10.135Z,76.45
2023-04-19T02:40:13.351Z,76.28
2023-04-19T02:44:18.348Z,76.31
2023-04-19T02:48:21.592Z,76.59
2023-04-19T02:52:24.891Z,76.36
2023-04-19T02:56:27.989Z,76.57
2023-04-19T03:00:32.886Z,76.43
2023-04-19T03:04:43.617Z,76.46
2023-04-19T03:08:47.072Z,76.59
2023-04-19T03:12:50.905Z,76.74
2023-04-19T03:16:55.833Z,76.56
2023-04-19T03:20:59.154Z,76.51
2023-04-19T03:25:07.345Z,76.38
2023-04-19T03:29:12.150Z,76.60
2023-04-19T03:33:20.477Z,76.61
2023-04-19T03:37:24.178Z,76.68
2023-04-19T03:41:28.792Z,76.64
2023-04-19T03:45:49.819Z,77.15
2023-04-19T03:49:55.067Z,76.93
2023-04-19T03:53:58.436Z,76.98
2023-04-19T03:58:01.901Z,77.13
2023-04-19T04:02:16.907Z,77.12
2023-04-19T04:06:21.573Z,77.43
2023-04-19T04:10:25.167Z,77.30
2023-04-19T04:14:28.564Z,77.72
2023-04-19T04:18:32.195Z,78.16
2023-04-19T04:22:44.159Z,78.33
2023-04-19T04:26:51.561Z,78.45
2023-04-19T04:30:59.263Z,79.13
2023-04-19T04:35:07.042Z,79.25
2023-04-19T04:39:20.077Z,79.63
2023-04-19T04:43:24.457Z,79.52
2023-04-19T04:47:32.409Z,79.97
2023-04-19T04:51:39.034Z,80.07
2023-04-19T04:55:43.520Z,80.81
2023-04-19T04:59:49.139Z,81.02
2023-04-19T05:03:55.148Z,81.29
2023-04-19T05:07:58.632Z,81.26
2023-04-19T05:12:03.491Z,81.41
2023-04-19T05:16:07.609Z,81.66
2023-04-19T05:20:12.181Z,82.05
2023-04-19T05:24:15.634Z,81.71
2023-04-19T05:28:21.287Z,81.98
2023-04-19T05:32:47.431Z,82.03
2023-04-19T05:36:51.797Z,81.96
2023-04-19T05:40:55.612Z,82.15
2023-04-19T05:45:00.017Z,82.07
2023-04-19T05:49:04.343Z,82.21
2023-04-19T05:53:26.433Z,82.63
2023-04-19T05:57:30.146Z,82.88
2023-04-19T06:01:35.283Z,83.11
2023-04-19T06:05:40.547Z,83.01
2023-04-19T06:09:43.666Z,83.37
2023-04-19T06:13:47.431Z,83.40
2023-04-19T06:17:51.961Z,83.33
2023-04-19T06:21:55.400Z,83.58
2023-04-19T06:25:58.443Z,83.48
2023-04-19T06:30:01.714Z,83.53
2023-04-19T06:34:06.166Z,83.70
2023-04-19T06:38:09.206Z,84.01
2023-04-19T06:42:12.535Z,83.77
2023-04-19T06:46:15.915Z,84.14
2023-04-19T06:50:20.824Z,83.72
2023-04-19T06:54:23.865Z,83.39
2023-04-19T06:58:26.958Z,83.32
2023-04-19T07:02:30.103Z,83.21
2023-04-19T07:06:34.666Z,82.83
2023-04-19T07:10:37.755Z,82.87
2023-04-19T07:14:40.801Z,83.10
2023-04-19T07:18:44.495Z,83.17
2023-04-19T07:22:49.110Z,83.17
2023-04-19T07:26:52.084Z,83.73
2023-04-19T07:30:55.300Z,84.04
2023-04-19T07:34:58.446Z,84.18
2023-04-19T07:39:02.847Z,84.28
2023-04-19T07:43:06.750Z,84.49
2023-04-19T07:47:09.811Z,84.79
2023-04-19T07:51:13.585Z,84.70
2023-04-19T07:55:17.968Z,84.80
2023-04-19T07:59:21.041Z,85.22
2023-04-19T08:03:24.248Z,85.27
2023-04-19T08:07:27.441Z,85.16
2023-04-19T08:11:32.101Z,85.62
2023-04-19T08:19:41.682Z,85.91
2023-04-19T08:23:48.204Z,85.86
2023-04-19T08:27:52.991Z,86.22
2023-04-19T08:31:56.333Z,86.10
2023-04-19T08:35:59.406Z,86.61
2023-04-19T08:40:03.870Z,86.12
2023-04-19T08:44:08.755Z,86.52
2023-04-19T08:48:12.670Z,86.59
2023-04-19T08:52:16.693Z,86.30
2023-04-19T08:56:34.490Z,86.70
2023-04-19T09:00:41.368Z,86.60
2023-04-19T09:04:44.724Z,86.71
2023-04-19T09:08:47.987Z,86.45
2023-04-19T09:13:06.122Z,86.26
2023-04-19T09:17:18.373Z,86.15
2023-04-19T09:21:29.451Z,85.86
2023-04-19T09:25:47.163Z,85.09
2023-04-19T09:29:56.336Z,85.73
2023-04-19T09:34:14.219Z,85.63
2023-04-19T09:38:17.824Z,84.42
2023-04-19T09:42:42.384Z,84.14
2023-04-19T09:46:45.641Z,83.71
2023-04-19T09:51:02.377Z,83.52
2023-04-19T09:55:22.142Z,84.27
2023-04-19T09:59:28.852Z,84.16
2023-04-19T10:03:32.778Z,84.18
2023-04-19T10:07:38.328Z,84.51
2023-04-19T10:11:42.971Z,84.29
2023-04-19T10:15:52.685Z,84.10
2023-04-19T10:20:07.748Z,84.57
2023-04-19T10:24:14.763Z,83.54
2023-04-19T10:28:18.052Z,83.79
2023-04-19T10:32:21.174Z,83.03
2023-04-19T10:36:28.288Z,83.25
2023-04-19T10:40:59.110Z,83.09
2023-04-19T10:45:33.268Z,82.85
2023-04-19T10:49:46.143Z,83.24
2023-04-19T10:53:59.631Z,83.74
2023-04-19T10:58:05.716Z,83.79
2023-04-19T11:02:29.498Z,82.36
2023-04-19T11:06:33.200Z,81.92
2023-04-19T11:10:36.624Z,81.30
2023-04-19T11:14:43.051Z,79.92
2023-04-19T11:18:46.120Z,79.81
2023-04-19T11:22:49.289Z,79.47
2023-04-19T11:26:54.819Z,78.07
2023-04-19T11:31:00.197Z,76.30
2023-04-19T11:35:08.441Z,75.41
2023-04-19T11:39:12.130Z,75.82
2023-04-19T11:43:15.327Z,74.17
2023-04-19T11:47:20.888Z,74.18
2023-04-19T11:51:23.955Z,73.33
2023-04-19T11:55:27.398Z,72.83
2023-04-19T11:59:31.096Z,72.89
2023-04-19T12:03:36.896Z,74.40
2023-04-19T12:08:06.331Z,75.11
2023-04-19T12:12:09.406Z,75.23
2023-04-19T12:16:13.296Z,75.50
2023-04-19T12:20:31.643Z,76.09
2023-04-19T12:24:34.761Z,76.25
2023-04-19T12:28:37.835Z,76.26
2023-04-19T12:32:41.043Z,76.65
2023-04-19T12:36:45.488Z,76.34
2023-04-19T12:40:48.836Z,75.31
2023-04-19T12:44:51.901Z,75.12
2023-04-19T12:48:55.090Z,75.24
2023-04-19T12:52:59.589Z,74.68
2023-04-19T12:57:03.548Z,73.93
2023-04-19T13:01:07.324Z,73.66
2023-04-19T13:05:12.920Z,72.31
2023-04-19T13:09:17.825Z,72.67
2023-04-19T13:13:20.958Z,72.90
2023-04-19T13:17:23.991Z,73.34
2023-04-19T13:21:27.929Z,73.61
2023-04-19T13:25:32.474Z,73.18
2023-04-19T13:29:35.531Z,72.53
2023-04-19T13:33:38.598Z,72.77
2023-04-19T13:37:44.272Z,72.10
2023-04-19T13:41:48.958Z,71.98
2023-04-19T13:45:52.099Z,71.46
2023-04-19T13:49:55.110Z,72.12
2023-04-19T13:53:58.120Z,71.16
2023-04-19T13:58:02.522Z,71.58
2023-04-19T14:02:05.780Z,71.33
2023-04-19T14:06:09.016Z,70.96
2023-04-19T14:10:12.438Z,69.61
2023-04-19T14:14:17.454Z,69.58
2023-04-19T14:18:20.734Z,69.27
2023-04-19T14:22:23.753Z,69.60
2023-04-19T14:26:27.728Z,69.15
2023-04-19T14:30:32.283Z,66.90
2023-04-19T14:34:35.304Z,64.79
2023-04-19T14:38:38.266Z,65.03
2023-04-19T14:42:41.668Z,66.12
2023-04-19T14:46:46.564Z,66.70
2023-04-19T14:50:49.872Z,66.27
2023-04-19T14:54:52.851Z,66.17
2023-04-19T14:58:55.989Z,66.18
2023-04-19T15:03:01.296Z,66.78
2023-04-19T15:07:04.862Z,66.66
2023-04-19T15:11:07.889Z,66.32
2023-04-19T15:15:11.697Z,65.87
2023-04-19T15:19:16.862Z,65.77
2023-04-19T15:23:22.204Z,65.76
2023-04-19T15:27:25.295Z,65.57
2023-04-19T15:31:28.304Z,65.59
2023-04-19T15:35:33.398Z,65.85
2023-04-19T15:39:36.415Z,65.74
2023-04-19T15:43:39.774Z,65.97
2023-04-19T15:47:42.913Z,66.01
2023-04-19T15:51:47.368Z,65.99
2023-04-19T15:55:50.514Z,65.79
2023-04-19T15:59:53.572Z,65.62
2023-04-19T16:03:56.749Z,65.87
2023-04-19T16:08:04.961Z,65.38
2023-04-19T16:12:08.302Z,65.54
2023-04-19T16:16:11.350Z,65.61
2023-04-19T16:20:14.494Z,65.16
2023-04-19T16:24:19.030Z,65.30
2023-04-19T16:28:22.167Z,65.81
2023-04-19T16:32:25.281Z,66.05
2023-04-19T16:36:28.537Z,66.19
2023-04-19T16:40:33.204Z,65.70
2023-04-19T16:44:36.690Z,65.37
2023-04-19T16:48:39.812Z,65.57
2023-04-19T16:52:42.863Z,65.49
2023-04-19T16:56:47.361Z,65.55
2023-04-19T17:00:50.459Z,65.75
2023-04-19T17:04:53.834Z,66.24
2023-04-19T17:08:57.046Z,66.54
2023-04-19T17:13:01.562Z,66.51
2023-04-19T17:17:04.704Z,66.96
2023-04-19T17:21:07.729Z,66.18
2023-04-19T17:25:11.074Z,66.47
2023-04-19T17:29:15.777Z,66.83
2023-04-19T17:33:18.893Z,67.04
2023-04-19T17:37:22.128Z,67.60
2023-04-19T17:41:25.234Z,67.57
2023-04-19T17:45:29.924Z,67.63
2023-04-19T17:49:32.995Z,67.82
2023-04-19T17:53:36.135Z,67.85
2023-04-19T17:57:39.174Z,67.85
2023-04-19T18:01:43.602Z,67.99
2023-04-19T18:05:46.694Z,67.86
2023-04-19T18:09:49.699Z,68.28
2023-04-19T18:13:52.870Z,68.67
2023-04-19T18:17:57.339Z,68.28
2023-04-19T18:22:01.417Z,67.96
2023-04-19T18:26:05.103Z,67.63
2023-04-19T18:30:09.181Z,68.18
2023-04-19T18:34:13.894Z,68.31
2023-04-19T18:38:16.974Z,68.57
2023-04-19T18:42:20.173Z,67.53
2023-04-19T18:46:24.247Z,67.49
2023-04-19T18:50:28.814Z,67.72
2023-04-19T18:54:31.816Z,67.66
2023-04-19T18:58:34.835Z,67.79
2023-04-19T19:02:40.450Z,68.09
2023-04-19T19:06:45.572Z,67.62
2023-04-19T19:11:13.791Z,68.15
2023-04-19T19:15:11.962Z,68.37
2023-04-19T19:19:15.303Z,67.93
2023-04-19T19:23:20.491Z,68.23
2023-04-19T19:27:29.314Z,68.20
2023-04-19T19:31:32.326Z,68.43
2023-04-19T19:35:35.982Z,68.23
2023-04-19T19:39:40.605Z,68.51
2023-04-19T19:43:45.201Z,68.97
2023-04-19T19:47:49.960Z,69.18
2023-04-19T19:51:58.483Z,69.67
2023-04-19T19:56:04.292Z,69.69
2023-04-19T20:04:17.260Z,69.98
2023-04-19T20:08:20.413Z,69.69
2023-04-19T20:12:24.862Z,69.90
2023-04-19T20:16:29.090Z,69.77
2023-04-19T20:20:32.250Z,69.85
2023-04-19T20:24:35.260Z,69.84
2023-04-19T20:28:39.635Z,69.90
2023-04-19T20:32:43.307Z,69.81
2023-04-19T20:36:47.271Z,69.89
2023-04-19T20:40:50.702Z,70.07
2023-04-19T20:44:55.106Z,69.98
2023-04-19T20:48:58.217Z,70.32
2023-04-19T20:53:01.383Z,70.32
2023-04-19T20:57:04.861Z,70.54
2023-04-19T21:01:10.084Z,70.61
2023-04-19T21:05:13.212Z,70.68
2023-04-19T21:09:16.495Z,70.98
2023-04-19T21:13:19.721Z,71.23
2023-04-19T21:17:24.401Z,71.59
2023-04-19T21:21:28.065Z,71.20
2023-04-19T21:25:31.192Z,71.39
2023-04-19T21:29:34.614Z,71.71
2023-04-19T21:33:39.080Z,71.92
2023-04-19T21:37:42.129Z,72.29
2023-04-19T21:41:45.186Z,72.53
2023-04-19T21:45:48.222Z,72.47
2023-04-19T21:49:53.348Z,72.62
2023-04-19T21:53:56.461Z,72.74
2023-04-19T21:57:59.763Z,72.61
2023-04-19T22:02:03.159Z,72.59
2023-04-19T22:06:08.546Z,72.21
2023-04-19T22:10:13.766Z,72.19
2023-04-19T22:14:17.646Z,71.91
2023-04-19T22:18:20.893Z,71.55
2023-04-19T22:22:25.510Z,71.52
2023-04-19T22:26:29.352Z,71.73
2023-04-19T22:30:32.432Z,71.52
2023-04-19T22:34:36.531Z,71.02
2023-04-19T22:38:40.962Z,71.46
2023-04-19T22:42:44.069Z,71.34
2023-04-19T22:46:47.340Z,71.23
2023-04-19T22:50:52.528Z,71.08
2023-04-19T22:54:57.025Z,71.75
2023-04-19T22:59:00.095Z,71.37
2023-04-19T23:03:03.651Z,71.46
2023-04-19T23:07:07.075Z,71.17
2023-04-19T23:11:11.492Z,71.42
2023-04-19T23:15:14.837Z,71.11
2023-04-19T23:19:18.201Z,71.14
2023-04-19T23:23:21.504Z,70.91
2023-04-19T23:27:26.598Z,71.31
2023-04-19T23:31:29.714Z,71.32
2023-04-19T23:35:32.816Z,71.26
2023-04-19T23:39:35.926Z,71.41
2023-04-19T23:43:40.499Z,71.69
2023-04-19T23:47:43.583Z,72.04
2023-04-19T23:51:48.889Z,72.07
2023-04-19T23:55:51.970Z,72.02
2023-04-19T23:59:56.454Z,72.27
